Lublin, Wisconsin
Current Conditions -  °F | °C
As of 10:55 AM on Saturday 22 Nov 2014 (Local Time) from KMDZ Reporting Station
Haze Haze  
Wind Chill: 26°   Ceiling: 200
Heat Index: 32°   Visibility: 1mi
Dew Point: 32°   Wind: 7mph
Humidity: 99%   Direction: 220°SW
Pressure: 29.75"   Gusts: NA
Location:  45.08°N, 90.72°W
Report Text: KMDZ 221655Z AUTO 22006KT 1SM BR OVC002 00/00 A2975 RMK AO2 T00020000
Loading
Personal Weather Stations






























Interactive Weather Map New forecast layout! Learn more

10-Day Weather Forecast

Advertisements
Track Severe Weather on mobile